CMS Time Trial Series #4 2017

# of participants: 122# of finishers: 118last updated: 7/31/2017 11:37 am
Result Questions?
Award Overall Bib First Name Last Name Gender Age Age Group Rank Division Div Rank City ST Finish Time Speed Lap 1 Lap 2 Lap 3 Lap 4 Lap 5 Lap 6 Lap 7
1 609 CHESTER PAUL M 38 Tandem 1 153 QUARTER LANE NC 19:56.0 30.1 mph 2:50.0 2:50.0 2:52.0 2:50.0 2:49.0 2:54.0 2:47.0
2 626 NICHOLAS LUTHER M 25 Licensed Cat 1, 2 1 19 DECKERS WAY SC 20:18.0 29.56 mph 2:59.0 2:53.0 2:51.0 2:52.0 2:53.0 2:54.0 2:52.0
3 597 MARK JELLOUS M 48 Licensed Cat 1, 2 2 HIGH POINT NC 20:37.0 29.1 mph 2:59.0 2:56.0 2:57.0 2:58.0 2:58.0 2:55.0 2:52.0
4 603 JAMES MARTIN M 58 Licensed - Masters 55+ 1 ARDEN NC 21:01.0 28.55 mph 2:55.0 2:57.0 3:01.0 3:02.0 3:01.0 3:03.0 2:58.0
5 623 RICK WESLOCK M 45 1 Recreation - Age Groups 1 FORT MILL SC 21:03.0 28.5 mph 2:55.0 2:58.0 3:01.0 3:05.0 3:05.0 3:02.0 2:54.0
6 600 DEREK KIDWELL M 33 1 Recreation - Age Groups 2 MOORESVILLE NC 21:13.0 28.28 mph 3:11.0 3:08.0 3:05.0 2:51.0 2:53.0 2:56.0 3:06.0
7 606 LEVI NELSON M 35 Licensed Cat 3 1 CHARLOTTE NC 21:25.0 28.02 mph 2:55.0 3:01.0 3:03.0 3:08.0 3:07.0 3:07.0 3:01.0
8 588 GENE FOWLER M 53 Licensed Cat 1, 2 3 BOONE NC 21:36.0 27.78 mph 3:00.0 3:01.0 3:06.0 3:07.0 3:08.0 3:08.0 3:03.0
9 582 PETER CASSIDY M 44 Licensed Cat 4 1 CHARLOTTE NC 21:44.0 27.61 mph 3:07.0 3:10.0 3:04.0 3:06.0 3:09.0 3:06.0 3:01.0
10 621 GREG THOMPSON M 38 Licensed - Masters 35+ 1 8843 KENSINGTON FOREST DR NC 21:52.0 27.44 mph 3:14.0 3:06.0 3:05.0 3:05.0 3:01.0 3:14.0 3:04.0
11 576 MARC BUXBAUM M 48 Licensed - Masters 45+ 1 1113 BLYKEFORD LN WAKE FO NC 22:14.0 26.99 mph 3:05.0 3:07.0 3:11.0 3:10.0 3:11.0 3:15.0 3:11.0
12 596 MARK HOULIHAN M 49 Licensed Cat 4 2 DAVIDSON NC 22:14.0 26.99 mph 3:15.0 3:07.0 3:08.0 3:09.0 3:09.0 3:08.0 3:14.0
13 602 CHUCK MANTOOTH M 50 Licensed Cat 5 1 BOONE NC 22:27.0 26.73 mph 3:05.0 3:09.0 3:10.0 3:17.0 3:17.0 3:16.0 3:11.0
14 630 DANIEL DUCKWORTH M 38 Licensed Cat 5 2 BANNER ELK NC 22:34.0 26.59 mph 3:19.0 3:13.0 3:11.0 3:16.0 3:15.0 3:12.0 3:05.0
15 573 NICHOLAS ABLE M 37 Licensed Cat 3 2 HUNTERSVILLE NC 22:45.0 26.37 mph 3:10.0 3:10.0 3:15.0 3:16.0 3:16.0 3:19.0 3:16.0
16 607 TIM ODONNELL M 44 Licensed Cat 4 3 ROCK HILL SC 22:48.0 26.32 mph 3:22.0 3:14.0 3:13.0 3:14.0 3:16.0 3:18.0 3:09.0
17 577 MICHAEL BYRD M 47 Merckx Men 1 MOORESVILLE NC 22:51.0 26.26 mph 3:16.0 3:15.0 3:12.0 3:17.0 3:15.0 3:18.0 3:16.0
18 613 BILL RADLER M 60 1 Recreation - Age Groups 3 3820 FOX HILLS DRIVE GA 22:55.0 26.18 mph 3:16.0 3:15.0 3:13.0 3:17.0 3:16.0 3:21.0 3:14.0
19 391 FRED MITCHELL M 43 1 Recreation - Age Groups 4 GALAX VA 23:03.0 26.03 mph 3:16.0 3:13.0 3:14.0 3:19.0 3:18.0 3:21.0 3:19.0
20 599 BOB KERNS M 61 Fixed Gear 1 HUNTERSVILLE NC 23:06.0 25.97 mph 3:13.0 3:17.0 3:17.0 3:20.0 3:16.0 3:22.0 3:18.0
21 629 JONATHAN WISE M 42 2 Recreation - Age Groups 5 CHARLOTTE NC 23:11.0 25.88 mph 3:16.0 3:16.0 3:17.0 3:21.0 3:21.0 3:21.0 3:16.0
22 587 JOHN FINNEY M 51 1 Recreation - Age Groups 6 4901 SPRING CHASE WAY NC 23:12.0 25.86 mph 3:29.0 3:21.0 3:13.0 3:16.0 3:18.0 3:19.0 3:14.0
23 595 GUENTER HEYEN M 63 Licensed - Masters 55+ 2 MT GILEAD NC 23:14.0 25.82 mph 3:25.0 3:17.0 3:19.0 3:22.0 3:21.0 3:20.0 3:07.0
24 628 ALEXANDER COWELL M 48 Licensed Cat 4 4 2478 FOXWOOD DRIVE NC 23:14.0 25.82 mph 3:17.0 3:17.0 3:17.0 3:17.0 3:21.0 3:24.0 3:18.0
25 594 JIMMY HERRIN M 58 Licensed - Masters 55+ 3 HARRISBURG NC 23:20.0 25.71 mph 3:21.0 3:15.0 3:15.0 3:15.0 3:23.0 3:23.0 3:23.0
26 578 ALEX CAILLAT M 38 1 Recreation - Age Groups 7 HIGH POINT NC 23:22.0 25.68 mph 3:14.0 3:10.0 3:23.0 3:26.0 3:32.0 3:25.0 3:10.0
27 610 MARK PETERSON M 66 1 Recreation - Age Groups 8 CORNELIUS NC 23:23.0 25.66 mph 3:18.0 3:15.0 3:20.0 3:21.0 3:18.0 3:25.0 3:23.0
28 410 JEFF WOLSHON M 52 2 Recreation - Age Groups 9 3726 STOKES AVE NC 23:34.0 25.46 mph 3:23.0 3:16.0 3:16.0 3:24.0 3:27.0 3:23.0 3:22.0
29 631 CODY GONZALEZ M 36 2 Recreation - Age Groups 10 10314 CALDWELL DEPOT RD NC 23:44.0 25.28 mph 3:23.0 3:16.0 3:20.0 3:20.0 3:30.0 3:26.0 3:25.0
30 586 DAN FINERAN M 66 Licensed Cat 5 3 MOORESVILLE NC 23:48.0 25.21 mph 3:21.0 3:16.0 3:21.0 3:25.0 3:29.0 3:30.0 3:22.0
31 412 ROSS MASON M 68 2 Recreation - Age Groups 11 JAMESTOWN NC 23:50.0 25.17 mph 3:28.0 3:24.0 3:20.0 3:22.0 3:26.0 3:25.0 3:21.0
32 604 SARAH MATCHETT F 47 Licensed Cat 1, 2 1 DAVIDSON NC 23:51.0 25.16 mph 3:26.0 3:20.0 3:22.0 3:26.0 3:26.0 3:27.0 3:21.0
33 592 GENE HAAS M 41 3 Recreation - Age Groups 12 CHARLOTTE NC 23:54.0 25.1 mph 3:31.0 3:32.0 3:33.0 3:25.0 3:18.0 3:19.0 3:14.0
34 591 JAMES GUIMOND M 57 1 Recreation - Age Groups 13 CHARLOTTE NC 24:00.0 25.0 mph 3:28.0 3:20.0 3:26.0 3:30.0 3:28.0 3:24.0 3:21.0
35 615 CHRIS REINKE M 53 Fixed Gear 2 YORK SC 24:02.0 24.97 mph 3:20.0 3:30.0 3:27.0 3:31.0 3:26.0 3:27.0 3:19.0
36 369 ISAAC BLACKBURN M 37 Merckx Men 2 NEWTON NC 24:13.0 24.78 mph 3:28.0 3:31.0 3:27.0 3:29.0 3:26.0 3:28.0 3:22.0
37 392 ERIC MORRISON M 49 2 Recreation - Age Groups 14 GREENSBORO NC 24:20.0 24.66 mph 3:27.0 3:19.0 3:26.0 3:28.0 3:33.0 3:39.0 3:25.0
38 618 WILLIAM SPAHR M 61 Fixed Gear 3 CHARLESTON SC 24:49.0 24.18 mph 3:31.0 3:24.0 3:32.0 3:32.0 3:39.0 3:40.0 3:27.0
39 367 KEITH ALVEY M 62 2 Recreation - Age Groups 15 GASTONIA NC 24:53.0 24.11 mph 3:39.0 3:31.0 3:33.0 3:34.0 3:35.0 3:33.0 3:25.0
41 411 MIKE SHEMANCIK M 56 2 Recreation - Age Groups 17 KERNERSVILLE NC 24:54.0 24.1 mph 3:39.0 3:33.0 3:27.0 3:34.0 3:36.0 3:34.0 3:28.0
40 418 RYAN THIGPEN M 42 4 Recreation - Age Groups 16 HUNTERSVILLE NC 24:54.0 24.1 mph 3:33.0 3:32.0 3:37.0 3:30.0 3:33.0 3:38.0 3:28.0
42 415 LEYLA PORTEOUS F 41 1 Recreation - Age Groups 1 141 ALDER SPRINGS NC 24:55.0 24.08 mph 3:29.0 3:32.0 3:32.0 3:34.0 3:39.0 3:36.0 3:30.0
43 608 ASHLEY PARLETT F 34 Licensed - Women Cat 4 1 MOORESVILLE NC 24:58.0 24.03 mph 3:31.0 3:29.0 3:32.0 3:37.0 3:41.0 3:33.0 3:31.0
44 373 CHRISTOPHER CRANDALL M 52 Licensed Cat 5 4 RALEIGH NC 25:00.0 24.0 mph 3:29.0 3:29.0 3:34.0 3:38.0 3:39.0 3:37.0 3:30.0
45 632 REUBEN HOWDEN M 47 Merckx Men 3 HUNTERSVILLE NC 25:00.0 24.0 mph 3:36.0 3:36.0 3:33.0 3:30.0 3:38.0 3:36.0 3:27.0
46 389 WALT MAXWELL M 52 3 Recreation - Age Groups 18 GREEENSBORO NC 25:13.0 23.79 mph 3:33.0 3:38.0 3:36.0 3:37.0 3:39.0 3:37.0 3:30.0
47 366 BRYAN ALLF M 60 3 Recreation - Age Groups 19 GASTONIA NC 25:15.0 23.76 mph 3:36.0 3:34.0 3:38.0 3:36.0 3:40.0 3:36.0 3:32.0
48 417 SONNI DYER M 50 Licensed - Masters 45+ 2 1012 WOODLAND ST SE NC 25:18.0 23.72 mph 3:26.0 3:33.0 3:39.0 3:39.0 3:40.0 3:42.0 3:35.0
49 416 KARIN GOULD F 39 1 Recreation - Age Groups 2 18948 KANAWHA DR NC 25:20.0 23.68 mph 3:40.0 3:31.0 3:37.0 3:43.0 3:39.0 3:36.0 3:31.0
50 179 BARRETT LAWSON M 37 Motorsports TT 1 CONCORD NC 25:21.0 23.67 mph 3:36.0 3:37.0 3:33.0 3:31.0 3:44.0 3:46.0 3:32.0
52 376 LAURA GAGEL F 52 1 Recreation - Age Groups 3 SHERRILLS FORD NC 25:22.0 23.65 mph 3:44.0 3:38.0 3:38.0 3:35.0 3:39.0 3:37.0 3:29.0
51 383 DARRELL HINKLIN M 71 1 Recreation - Age Groups 20 HUNTERSVILLE NC 25:22.0 23.65 mph 3:39.0 3:40.0 3:36.0 3:40.0 3:36.0 3:35.0 3:33.0
53 388 JON MARSHALL M 45 Merckx Men 4 HUNTERSVILLE NC 25:22.0 23.65 mph 3:39.0 3:36.0 3:40.0 3:36.0 3:35.0 3:39.0 3:35.0
54 620 JASEN TAYLOR M 42 Merckx Men 5 MOORESVILLE NC 25:22.0 23.65 mph 3:30.0 3:34.0 3:34.0 3:27.0 3:44.0 3:46.0 3:43.0
55 414 LAT PURSER M 66 3 Recreation - Age Groups 21 CHARLOTTE NC 25:34.0 23.47 mph 3:41.0 3:34.0 3:34.0 3:37.0 3:42.0 3:44.0 3:40.0
56 396 PAUL PAISANT M 50 Merckx Men 6 1702 GENTRY CT HIGH POINT NC 25:36.0 23.44 mph 3:36.0 3:36.0 3:35.0 3:37.0 3:45.0 3:48.0 3:36.0
57 616 ROBERT RHEAULT M 56 Licensed - Masters 55+ 4 KERNERSVILLE NC 25:38.0 23.41 mph 3:40.0 3:40.0 3:40.0 3:40.0 3:42.0 3:42.0 3:31.0
58 413 GRAEME HAMPTON M 67 4 Recreation - Age Groups 22 305 W GREENWAY DR S NC 25:39.0 23.39 mph 3:42.0 3:41.0 3:42.0 3:39.0 3:43.0 3:39.0 3:31.0
59 378 KEITH GARDINER M 57 3 Recreation - Age Groups 23 TRINITY NC 25:41.0 23.36 mph 3:47.0 3:41.0 3:41.0 3:40.0 3:36.0 3:37.0 3:35.0
60 371 CHRISTI BRITT F 47 Licensed - Women Cat 4 2 ASHEVILLE NC 25:43.0 23.33 mph 3:40.0 3:35.0 3:44.0 3:43.0 3:42.0 3:39.0 3:36.0
61 627 JASON MARSHALL M 42 Merckx Men 7 7508 CHASEWATER DR HARRI NC 25:50.0 23.23 mph 3:35.0 3:38.0 3:42.0 3:45.0 3:43.0 3:48.0 3:37.0
62 409 RANDY WHITT M 71 2 Recreation - Age Groups 24 CHARLOTTE NC 26:03.0 23.03 mph 3:41.0 3:37.0 3:43.0 3:38.0 3:41.0 3:51.0 3:49.0
63 403 MIKE ROBERTS M 62 4 Recreation - Age Groups 25 BOONE NC 26:04.0 23.02 mph 3:37.0 3:35.0 3:36.0 3:44.0 3:49.0 3:49.0 3:52.0
64 407 WALLACE WARREN M 59 4 Recreation - Age Groups 26 CHARLOTTE NC 26:22.0 22.76 mph 3:48.0 3:43.0 3:41.0 3:43.0 3:48.0 3:49.0 3:47.0
65 419 MARY THIGPEN F 41 2 Recreation - Age Groups 4 HUNTERSVILLE NC 26:29.0 22.66 mph 3:40.0 3:45.0 3:48.0 3:49.0 3:52.0 3:51.0 3:41.0
66 408 MELISSA WHITLEY F 42 Merckx Women 1 ALBEMARLE NC 26:30.0 22.64 mph 3:39.0 3:41.0 3:49.0 3:46.0 3:52.0 3:55.0 3:46.0
67 385 AMY KRAKAUER F 31 1 Recreation - Age Groups 5 CHARLOTTE NC 26:36.0 22.56 mph 3:42.0 3:40.0 3:47.0 3:56.0 3:54.0 3:48.0 3:45.0
68 406 AUSTIN WACHTER M 43 Merckx Men 8 10210 TREETOP LANE NC 26:38.0 22.53 mph 3:35.0 3:47.0 3:47.0 3:49.0 3:57.0 3:53.0 3:47.0
69 580 LAURA CALVIN F 42 Merckx Women 2 CONCORD NC 26:39.0 22.51 mph 3:49.0 3:50.0 3:54.0 3:43.0 3:50.0 3:45.0 3:46.0
70 380 KATHRYN GOODY F 48 Licensed - Women Cat 4 3 DAVIDSON NC 26:40.0 22.5 mph 3:46.0 3:46.0 3:44.0 3:52.0 3:54.0 3:50.0 3:45.0
71 393 BARRY MOTSINGER M 60 5 Recreation - Age Groups 27 WINSTON SALEM NC 26:41.0 22.49 mph 3:47.0 3:41.0 3:48.0 3:48.0 3:47.0 3:55.0 3:52.0
72 372 CAROLINE CONDON F 21 1 Recreation - Age Groups 6 CHARLOTTE NC 26:49.0 22.37 mph 3:47.0 3:44.0 3:50.0 3:51.0 3:55.0 3:55.0 3:45.0
73 370 GEOFF BRACE M 68 Fixed Gear 4 COLUMBUS NC 26:51.0 22.35 mph 3:36.0 3:39.0 3:46.0 3:56.0 3:57.0 3:57.0 3:55.0
74 176 ERIK JOHNSON M 35 Merckx Men 9 CHARLOTTE NC 26:54.0 22.3 mph 3:45.0 3:54.0 3:53.0 3:52.0 3:51.0 3:52.0 3:44.0
75 181 ALAN LYON M 56 5 Recreation - Age Groups 28 CHARLOTTE NC 27:03.0 22.18 mph 3:44.0 3:48.0 3:52.0 3:55.0 3:56.0 3:57.0 3:49.0
76 401 KEVIN PHILLIPS M 54 Merckx Men 10 MOORESVILLE NC 27:06.0 22.14 mph 3:59.0 3:46.0 3:53.0 3:52.0 3:52.0 3:55.0 3:45.0
77 173 SARAH HOBLET F 37 2 Recreation - Age Groups 7 15730 AGINCOURT DRIVE NC 27:10.0 22.09 mph 3:53.0 3:56.0 3:58.0 3:51.0 3:54.0 3:50.0 3:45.0
78 184 MANDY MIDGETT F 44 Licensed - Women Cat 4 4 ABERDEEN NC 27:21.0 21.94 mph 3:54.0 3:50.0 3:51.0 3:54.0 3:59.0 3:58.0 3:51.0
79 175 SHANNON HOULIHAN F 39 3 Recreation - Age Groups 8 WAXHAW NC 27:29.0 21.83 mph 3:53.0 3:56.0 3:57.0 3:58.0 3:53.0 3:57.0 3:52.0
80 207 JESSE READE M 36 Merckx Men 11 CHARLOTTE NE 27:31.0 21.8 mph 3:52.0 3:54.0 3:54.0 4:00.0 4:01.0 4:03.0 3:44.0
81 190 JOHN PRICE M 53 4 Recreation - Age Groups 29 GASTONIA NC 27:39.0 21.7 mph 3:50.0 3:54.0 3:56.0 3:54.0 3:55.0 4:04.0 4:03.0
82 377 RILEY GALLAGHER F 17 Licensed - Women Cat 3 1 HUNTERSVILLE NC 27:44.0 21.63 mph
83 187 MATT PARKER M 45 Merckx Men 12 CHARLOTTE NC 27:45.0 21.62 mph 3:56.0 3:48.0 3:51.0 4:03.0 4:04.0 4:09.0 3:52.0
84 368 CHRIS BEORKREM M 39 Merckx Men 13 CHARLOTTE NC 27:47.0 21.6 mph 4:02.0 3:58.0 4:04.0 3:57.0 3:57.0 3:59.0 3:47.0
85 209 JEREMY MAYNARD M 37 Merckx Men 14 1470 WOODSIDE DRIVE NC 27:50.0 21.56 mph 3:48.0 3:57.0 3:58.0 4:00.0 4:05.0 4:07.0 3:52.0
86 171 JODY FRAZIER F 43 3 Recreation - Age Groups 9 CHARLOTTE NC 27:52.0 21.53 mph 3:57.0 3:57.0 4:03.0 4:02.0 3:59.0 3:58.0 3:55.0
87 205 DANE PILON M 18 Hand Cyclists 1 37 SLOSMAN DR. PA 27:52.0 21.53 mph 3:51.0 3:56.0 3:56.0 4:01.0 4:06.0 3:58.0 4:00.0
88 196 CHRISTA SUMWALT F 44 4 Recreation - Age Groups 10 925 GRAND PROVINCIAL AVEN NC 28:00.0 21.43 mph 4:01.0 3:59.0 3:57.0 4:02.0 4:02.0 4:00.0 3:56.0
89 202 KRISTIN WINSTEAD F 45 1 Recreation - Age Groups 11 WILSON NC 28:00.0 21.43 mph 4:01.0 3:50.0 4:01.0 3:56.0 4:04.0 4:07.0 3:57.0
90 170 DOC BRADSHAW M 61 Merckx Men 15 GASTONIA NC 28:04.0 21.38 mph 3:57.0 3:54.0 4:00.0 3:57.0 4:04.0 4:06.0 4:04.0
91 399 KEVIN PERGERSON M 47 Licensed Cat 4 5 SIMPSONVILLE SC 28:04.0 21.38 mph 3:57.0 4:00.0 4:01.0 3:59.0 4:02.0 4:04.0 3:58.0
92 166 KEREN BENNETT F 13 1 Recreation - Age Groups 12 LENOIR NC 28:09.0 21.31 mph 3:49.0 4:01.0 4:02.0 4:10.0 4:09.0 4:02.0 3:54.0
93 189 VICTOR PINEIRO M 63 6 Recreation - Age Groups 30 CHARLOTTE NC 28:10.0 21.3 mph 4:01.0 3:56.0 4:04.0 4:07.0 4:08.0 4:04.0 3:47.0
94 395 NOEL NUNKOVICH M 47 Licensed Cat 5 5 CHAPEL HILL NC 28:16.0 21.23 mph 3:49.0 3:53.0 3:56.0 4:10.0 4:11.0 4:07.0 4:07.0
95 405 DWIGHT STEWART M 70 3 Recreation - Age Groups 31 CLAREMONT NC 28:24.0 21.13 mph 3:56.0 3:52.0 4:02.0 4:11.0 4:05.0 4:11.0 4:04.0
96 193 MONICA SMITH F 50 2 Recreation - Age Groups 13 HUNTERSVILLE NC 28:29.0 21.06 mph 4:04.0 4:07.0 4:07.0 4:07.0 4:03.0 4:00.0 3:57.0
97 201 CHAD WINSTEAD M 41 5 Recreation - Age Groups 32 WILSON NC 28:31.0 21.04 mph 3:50.0 3:56.0 4:05.0 4:07.0 4:12.0 4:12.0 4:07.0
98 382 DANA HARTLEY M 54 5 Recreation - Age Groups 33 MINT HILL NC 28:32.0 21.03 mph 3:55.0 3:49.0 3:57.0 4:03.0 4:16.0 4:15.0 4:14.0
99 204 RUTH YOASH-GANTZ F 58 1 Recreation - Age Groups 14 DAVIDSON NC 28:38.0 20.95 mph 4:00.0 3:59.0 4:04.0 4:08.0 4:13.0 4:11.0 4:00.0
100 194 SCOTT STEPHENSON M 50 6 Recreation - Age Groups 34 HICKORY NC 28:55.0 20.75 mph 4:00.0 4:05.0 4:07.0 4:13.0 4:13.0 4:16.0 3:57.0